Keewatin, MN (55753)

12:29 PM CST on December 04, 2016 (GMT -0600)
Chisholm-hibbing | | Change Station

Elev 1352 ft 47.39 °N, 92.84 °W | Updated 7 minutes ago

Overcast
Overcast
29 °F
Feels Like 21 °F
N
8
Wind Variable Wind from SE

Today
High -- | Low -- °F
--% Chance of Precip.
Yesterday
High -- | Low -- °F
Precip. -- in
Pressure 29.77 in
Visibility 4.0 miles
Clouds Overcast 1000 ft
Windchill 21 °F
Dew Point 27 °F
Humidity 92%
Rainfall 0.03 in
Snow Depth Not available.
7:42 AM 4:22 PM
Waxing Crescent, 24% visible
SPECI KHIB 041822Z AUTO 14007KT 4SM BR OVC010 M02/M03 A2977 RMK AO2 SNE21 CIG 007V012 P0000 T10171028
Pressure 29.77 in
Visibility 4.0 miles
Clouds Overcast 1000 ft
Windchill 21 °F
Dew Point 27 °F
Humidity 92%
Rainfall 0.03 in
Snow Depth Not available.
7:42 AM 4:22 PM
Waxing Crescent, 24% visible
SPECI KHIB 041822Z AUTO 14007KT 4SM BR OVC010 M02/M03 A2977 RMK AO2 SNE21 CIG 007V012 P0000 T10171028

10-Day Weather Forecast

Almanac

Astronomy

Dec. 04, 2016 Rise Set
Actual Time
Civil Twilight
Nautical Twilight
Astronomical Twilight
Moon
Length of Visible Light
Length of Day
Tomorrow will be .
, % of the Moon is Illuminated

Today's Extremes

State Highs State Lows

Community

WunderPhotos

Upload Photos

1,955,639 photos uploaded!

WunderBlog® & News

Nearby

Air Quality

  Air Quality AQ Index Pollutant
Not available.

Snow Depth

Station Depth Elevation

Earthquake Activity

City Distance Mag. Time & Date
Minimum magnitude displayed is 2.5.

Coastal Water Temperatures

Place Temperature

Stations

Nearby Weather Stations

Station Location Temp. Windchill Dew Point Humidity Wind Precip. Elev Updated Type
                   

Watches & Warnings

There are currently no watches in effect.